createdAt,value
2022-12-26T06:31:39.980Z,63.50
2022-12-26T06:32:10.731Z,92.30
2022-12-26T06:32:41.499Z,106.20
2022-12-26T06:33:12.249Z,107.00
2022-12-26T06:33:43.049Z,116.20
2022-12-26T06:34:13.953Z,115.30
2022-12-26T06:34:44.709Z,126.20
2022-12-26T06:35:15.456Z,138.70
2022-12-26T06:35:46.200Z,134.70
2022-12-26T06:36:16.948Z,124.10
2022-12-26T06:36:47.688Z,130.10
2022-12-26T06:37:18.435Z,134.50
2022-12-26T06:37:49.194Z,131.00
2022-12-26T06:38:19.941Z,139.60
2022-12-26T06:38:50.696Z,112.70
2022-12-26T06:39:21.441Z,117.60
2022-12-26T06:39:52.213Z,126.10
2022-12-26T06:40:22.968Z,127.90
2022-12-26T06:40:53.947Z,110.50
2022-12-26T06:41:24.920Z,135.60
2022-12-26T06:41:55.828Z,141.20
2022-12-26T06:42:26.877Z,162.40
2022-12-26T06:42:57.692Z,151.60
2022-12-26T06:43:28.469Z,146.70
2022-12-26T06:43:59.228Z,109.90
2022-12-26T06:44:30.003Z,116.90
2022-12-26T06:45:00.779Z,115.40
2022-12-26T06:45:31.537Z,135.20
2022-12-26T06:46:02.316Z,115.60
2022-12-26T06:46:33.139Z,129.90
2022-12-26T06:47:03.972Z,124.50
2022-12-26T06:47:34.819Z,108.00
2022-12-26T06:48:05.602Z,117.00
2022-12-26T06:48:36.351Z,133.60
2022-12-26T06:49:07.108Z,133.30
2022-12-26T06:49:43.361Z,121.90
2022-12-26T06:50:08.032Z,106.00
2022-12-26T06:50:38.794Z,115.80
2022-12-26T06:51:09.567Z,118.10
2022-12-26T06:51:40.340Z,109.90
2022-12-26T06:52:11.111Z,122.30
2022-12-26T06:52:41.869Z,111.70
2022-12-26T06:53:12.631Z,109.40
2022-12-26T06:53:43.403Z,100.60
2022-12-26T06:54:14.178Z,92.80
2022-12-26T06:54:44.978Z,107.40
2022-12-26T06:55:15.732Z,106.40
2022-12-26T06:55:46.500Z,98.30
2022-12-26T06:56:17.271Z,109.40
2022-12-26T06:56:48.063Z,101.80
2022-12-26T06:57:18.832Z,99.00
2022-12-26T06:57:49.704Z,105.20
2022-12-26T06:58:20.469Z,106.10
2022-12-26T06:58:51.212Z,102.30
2022-12-26T06:59:21.974Z,109.10
2022-12-26T06:59:52.753Z,108.30
2022-12-26T07:00:23.528Z,108.20
2022-12-26T07:00:54.375Z,112.50
2022-12-26T07:01:25.259Z,100.80
2022-12-26T07:01:56.171Z,112.80
2022-12-26T07:02:27.015Z,104.80
2022-12-26T07:02:57.842Z,116.80
2022-12-26T07:03:28.625Z,111.80
2022-12-26T07:03:59.382Z,102.20
2022-12-26T07:04:30.143Z,100.30
2022-12-26T07:05:00.914Z,98.70
2022-12-26T07:05:31.691Z,107.80
2022-12-26T07:06:02.441Z,118.00
2022-12-26T07:06:33.207Z,97.70
2022-12-26T07:07:03.957Z,102.50
2022-12-26T07:07:34.738Z,107.20
2022-12-26T07:08:05.494Z,108.40
2022-12-26T07:08:36.263Z,98.70
2022-12-26T07:09:07.024Z,101.60
2022-12-26T07:09:37.804Z,103.00
2022-12-26T07:10:08.575Z,106.20
2022-12-26T07:10:39.342Z,101.00
2022-12-26T07:11:10.101Z,104.00
2022-12-26T07:11:40.863Z,106.10
2022-12-26T07:12:11.631Z,97.80
2022-12-26T07:12:42.398Z,92.90
2022-12-26T07:13:13.172Z,103.30
2022-12-26T07:13:43.917Z,102.00
2022-12-26T07:14:14.667Z,106.10
2022-12-26T07:14:45.439Z,92.50
2022-12-26T07:15:16.199Z,105.00
2022-12-26T07:15:46.985Z,105.60
2022-12-26T07:16:17.787Z,101.10
2022-12-26T07:16:48.583Z,104.10
2022-12-26T07:17:19.366Z,91.80
2022-12-26T07:17:50.136Z,92.70
2022-12-26T07:18:20.896Z,96.50
2022-12-26T07:18:51.656Z,93.80
2022-12-26T07:19:22.427Z,91.90
2022-12-26T07:19:53.229Z,91.90
2022-12-26T07:20:23.986Z,99.10
2022-12-26T07:20:54.755Z,101.60
2022-12-26T07:21:25.537Z,90.20
2022-12-26T07:21:56.300Z,89.90
2022-12-26T07:22:27.047Z,91.10
2022-12-26T07:22:57.819Z,87.50
2022-12-26T07:23:28.578Z,105.10
2022-12-26T07:23:59.340Z,91.40
2022-12-26T07:24:30.097Z,103.60
2022-12-26T07:25:00.883Z,94.90
2022-12-26T07:25:31.640Z,104.40
2022-12-26T07:26:02.395Z,87.10
2022-12-26T07:26:33.148Z,87.30
2022-12-26T07:27:03.923Z,94.60
2022-12-26T07:27:34.686Z,97.40
2022-12-26T07:28:06.378Z,89.90
2022-12-26T07:28:37.136Z,81.30
2022-12-26T07:29:07.915Z,89.40
2022-12-26T07:29:38.690Z,76.50
2022-12-26T07:30:09.465Z,87.30
2022-12-26T07:30:40.230Z,84.20
2022-12-26T07:31:11.221Z,88.60
2022-12-26T07:31:42.043Z,86.10
2022-12-26T07:32:12.856Z,86.50
2022-12-26T07:32:43.650Z,100.10
2022-12-26T07:33:14.401Z,88.30
2022-12-26T07:33:45.167Z,89.70
2022-12-26T07:34:15.925Z,79.00
2022-12-26T07:34:46.690Z,90.10
2022-12-26T07:35:17.492Z,104.70
2022-12-26T07:35:48.286Z,88.40
2022-12-26T07:36:19.031Z,94.00
2022-12-26T07:36:49.812Z,85.80
2022-12-26T07:37:20.569Z,81.50
2022-12-26T07:37:51.342Z,82.90
2022-12-26T07:38:22.117Z,82.50
2022-12-26T07:38:52.883Z,95.00
2022-12-26T07:39:23.632Z,87.80
2022-12-26T07:39:58.950Z,78.60
2022-12-26T07:40:27.017Z,77.30
2022-12-26T07:40:57.790Z,91.10
2022-12-26T07:41:28.554Z,84.30
2022-12-26T07:41:59.316Z,89.90
2022-12-26T07:42:30.111Z,91.20
2022-12-26T07:43:00.874Z,87.90
2022-12-26T07:43:31.679Z,86.10
2022-12-26T07:44:02.421Z,85.30
2022-12-26T07:44:33.205Z,92.80
2022-12-26T07:45:04.009Z,97.50
2022-12-26T07:45:37.047Z,107.40
2022-12-26T07:46:07.466Z,90.20
2022-12-26T07:46:38.285Z,99.50
2022-12-26T07:47:09.093Z,97.90
2022-12-26T07:47:39.874Z,116.80
2022-12-26T07:48:10.624Z,104.40
2022-12-26T07:48:41.372Z,102.90
2022-12-26T07:49:12.148Z,98.50
2022-12-26T07:49:42.921Z,98.80
2022-12-26T07:50:13.709Z,99.50
2022-12-26T07:50:44.448Z,103.20
2022-12-26T07:51:15.223Z,104.80
2022-12-26T07:51:45.979Z,106.70
2022-12-26T07:52:16.750Z,109.40
2022-12-26T07:52:47.512Z,123.40
2022-12-26T07:53:18.288Z,107.30
2022-12-26T07:53:49.046Z,103.10
2022-12-26T07:54:19.782Z,116.60
2022-12-26T07:54:50.560Z,106.60
2022-12-26T07:55:21.383Z,107.50
2022-12-26T07:55:52.135Z,105.90
2022-12-26T07:56:22.900Z,113.70
2022-12-26T07:57:03.880Z,113.90
2022-12-26T07:57:58.866Z,103.00
2022-12-26T07:58:29.639Z,102.60
2022-12-26T07:59:00.374Z,110.70
2022-12-26T07:59:31.493Z,102.50
2022-12-26T08:00:02.264Z,101.10
2022-12-26T08:00:33.035Z,110.60
2022-12-26T08:01:03.917Z,102.10
2022-12-26T08:01:34.966Z,115.90
2022-12-26T08:02:05.996Z,115.30
2022-12-26T08:02:36.981Z,116.70
2022-12-26T08:03:08.404Z,105.70
2022-12-26T08:03:39.387Z,123.50
2022-12-26T08:04:10.156Z,106.60
2022-12-26T08:04:40.905Z,108.50
2022-12-26T08:05:12.168Z,106.90
2022-12-26T08:05:42.936Z,106.90
2022-12-26T08:06:13.682Z,111.20
2022-12-26T08:06:44.438Z,120.10
2022-12-26T08:07:15.206Z,110.90
2022-12-26T08:07:45.980Z,111.90
2022-12-26T08:08:16.717Z,114.00
2022-12-26T08:08:51.017Z,111.60
2022-12-26T08:09:18.957Z,119.00
2022-12-26T08:09:49.726Z,111.60
2022-12-26T08:10:20.513Z,113.70
2022-12-26T08:10:51.301Z,114.80
2022-12-26T08:11:22.081Z,102.80
2022-12-26T08:11:52.838Z,121.30
2022-12-26T08:12:23.615Z,119.20
2022-12-26T08:12:54.383Z,113.80
2022-12-26T08:13:25.147Z,112.10
2022-12-26T08:13:55.913Z,124.90
2022-12-26T08:14:26.657Z,117.10
2022-12-26T08:14:57.447Z,116.70
2022-12-26T08:15:32.285Z,126.90
2022-12-26T08:16:00.012Z,119.00
2022-12-26T08:16:30.862Z,121.30
2022-12-26T08:17:01.712Z,118.40
2022-12-26T08:17:32.491Z,119.20
2022-12-26T08:18:03.251Z,127.60
2022-12-26T08:18:34.019Z,125.20
2022-12-26T08:19:04.768Z,117.20
2022-12-26T08:19:35.567Z,121.70
2022-12-26T08:20:06.344Z,134.00
2022-12-26T08:20:37.119Z,124.70
2022-12-26T08:21:07.899Z,118.90
2022-12-26T08:21:38.678Z,116.50
2022-12-26T08:22:09.437Z,114.00
2022-12-26T08:22:40.216Z,118.80
2022-12-26T08:23:10.969Z,117.40
2022-12-26T08:23:42.257Z,120.90
2022-12-26T08:24:13.019Z,116.60
2022-12-26T08:24:43.773Z,120.90
2022-12-26T08:25:16.808Z,110.50
2022-12-26T08:25:47.169Z,109.00
2022-12-26T08:26:17.919Z,107.20
2022-12-26T08:26:48.701Z,103.40
2022-12-26T08:27:19.461Z,113.80
2022-12-26T08:27:50.241Z,118.30
2022-12-26T08:28:21.019Z,116.30
2022-12-26T08:28:51.794Z,125.50
2022-12-26T08:29:22.553Z,136.80
2022-12-26T08:29:53.320Z,127.60
2022-12-26T08:30:24.089Z,120.60
2022-12-26T08:30:54.850Z,111.40
2022-12-26T08:31:56.346Z,110.80
2022-12-26T08:32:27.110Z,114.30
2022-12-26T08:32:57.888Z,117.00
2022-12-26T08:33:28.649Z,129.90
2022-12-26T08:33:59.420Z,121.90
2022-12-26T08:34:30.199Z,117.10
2022-12-26T08:35:01.002Z,119.60
2022-12-26T08:35:31.795Z,118.20
2022-12-26T08:36:02.542Z,108.40
2022-12-26T08:36:33.304Z,118.60
2022-12-26T08:37:04.074Z,102.20
2022-12-26T08:37:34.810Z,116.60
2022-12-26T08:38:05.707Z,108.90
2022-12-26T08:38:36.459Z,106.30
2022-12-26T08:39:07.223Z,98.60
2022-12-26T08:39:37.991Z,109.40
2022-12-26T08:40:08.759Z,103.60
2022-12-26T08:40:43.976Z,109.40
2022-12-26T08:41:12.117Z,111.20
2022-12-26T08:41:42.886Z,95.30
2022-12-26T08:42:13.651Z,110.50
2022-12-26T08:42:56.114Z,101.50
2022-12-26T08:44:02.989Z,105.80
2022-12-26T08:44:27.146Z,101.90
2022-12-26T08:44:54.888Z,102.90
2022-12-26T08:45:25.664Z,108.10
2022-12-26T08:45:56.470Z,122.60
2022-12-26T08:46:27.243Z,108.50
2022-12-26T08:46:57.993Z,113.40
2022-12-26T08:47:28.754Z,119.00
2022-12-26T08:47:59.519Z,108.00
2022-12-26T08:48:30.292Z,101.10
2022-12-26T08:49:01.042Z,96.50
2022-12-26T08:49:31.802Z,112.70
2022-12-26T08:50:02.551Z,113.10
2022-12-26T08:50:36.564Z,111.80
2022-12-26T08:51:05.933Z,97.80
2022-12-26T08:51:36.746Z,106.50
2022-12-26T08:52:07.521Z,100.50
2022-12-26T08:52:38.272Z,96.10
2022-12-26T08:53:09.036Z,101.40
2022-12-26T08:53:39.783Z,100.90
2022-12-26T08:54:10.577Z,100.10
2022-12-26T08:54:41.364Z,95.70
2022-12-26T08:55:12.133Z,99.10
2022-12-26T08:55:42.898Z,106.80
2022-12-26T08:56:13.654Z,99.30
2022-12-26T08:56:44.425Z,95.20
2022-12-26T08:57:15.173Z,100.40
2022-12-26T08:57:45.953Z,107.10
2022-12-26T08:58:16.738Z,96.30
2022-12-26T08:58:47.563Z,86.40
2022-12-26T08:59:18.376Z,99.70
2022-12-26T08:59:49.144Z,88.50
2022-12-26T09:00:19.894Z,93.90
2022-12-26T09:00:55.256Z,91.10
2022-12-26T09:01:23.480Z,103.50
2022-12-26T09:01:54.432Z,90.70
2022-12-26T09:02:25.418Z,100.40
2022-12-26T09:02:56.343Z,89.40
2022-12-26T09:03:27.255Z,93.80
2022-12-26T09:03:58.027Z,106.90
2022-12-26T09:04:28.806Z,94.70
2022-12-26T09:04:59.564Z,93.70
2022-12-26T09:05:30.349Z,91.80
2022-12-26T09:06:05.582Z,94.90
2022-12-26T09:06:33.717Z,92.80
2022-12-26T09:07:04.458Z,95.00
2022-12-26T09:07:35.223Z,88.20
2022-12-26T09:08:05.977Z,86.90
2022-12-26T09:08:37.546Z,92.50
2022-12-26T09:09:08.295Z,93.90
2022-12-26T09:09:39.049Z,97.40
2022-12-26T09:10:09.810Z,84.80
2022-12-26T09:10:40.583Z,90.50
2022-12-26T09:11:11.986Z,86.30
2022-12-26T09:11:42.737Z,81.40
2022-12-26T09:12:13.498Z,96.30
2022-12-26T09:12:44.257Z,90.50
2022-12-26T09:13:15.017Z,84.40
2022-12-26T09:13:45.785Z,85.50
2022-12-26T09:14:16.532Z,89.20
2022-12-26T09:14:50.059Z,92.00
2022-12-26T09:15:18.030Z,93.50
2022-12-26T09:15:48.816Z,88.40
2022-12-26T09:16:19.606Z,96.60
2022-12-26T09:16:51.328Z,92.40
2022-12-26T09:17:23.088Z,92.60
2022-12-26T09:17:54.383Z,87.40
2022-12-26T09:18:25.543Z,89.40
2022-12-26T09:18:56.553Z,90.00
2022-12-26T09:19:27.778Z,92.80
2022-12-26T09:19:58.945Z,89.20
2022-12-26T09:20:29.924Z,84.60
2022-12-26T09:21:00.866Z,92.40
2022-12-26T09:21:31.672Z,79.80
2022-12-26T09:22:02.552Z,83.70
2022-12-26T09:22:35.333Z,79.40
2022-12-26T09:23:06.358Z,85.40
2022-12-26T09:23:37.301Z,94.90
2022-12-26T09:24:08.311Z,90.90
2022-12-26T09:24:39.273Z,102.20
2022-12-26T09:25:10.290Z,113.30
2022-12-26T09:25:41.336Z,83.40
2022-12-26T09:26:12.224Z,77.50
2022-12-26T09:26:43.647Z,90.80
2022-12-26T09:27:14.511Z,83.10
2022-12-26T09:27:45.704Z,82.70
2022-12-26T09:28:16.737Z,84.50
2022-12-26T09:28:47.934Z,73.20
2022-12-26T09:29:19.155Z,80.90
2022-12-26T09:29:50.274Z,79.20
2022-12-26T09:30:21.238Z,90.60
2022-12-26T09:30:52.329Z,82.70
2022-12-26T09:31:23.502Z,74.80
2022-12-26T09:31:54.442Z,75.50
2022-12-26T09:32:25.494Z,85.60
2022-12-26T09:32:56.386Z,80.80
2022-12-26T09:33:27.297Z,76.50
2022-12-26T09:33:58.222Z,75.40
2022-12-26T09:34:29.305Z,68.50
2022-12-26T09:35:00.374Z,74.40
2022-12-26T09:35:31.389Z,74.20
2022-12-26T09:36:05.394Z,70.90
2022-12-26T09:36:35.057Z,71.60
2022-12-26T09:37:05.972Z,65.60
2022-12-26T09:37:37.062Z,66.10
2022-12-26T09:38:07.869Z,66.50
2022-12-26T09:38:38.700Z,68.40
2022-12-26T09:39:09.481Z,73.50
2022-12-26T09:39:40.237Z,74.90
2022-12-26T09:40:11.518Z,71.90
2022-12-26T09:40:42.502Z,71.20
2022-12-26T09:41:13.500Z,77.10
2022-12-26T09:41:44.547Z,72.50
2022-12-26T09:42:15.367Z,69.70
2022-12-26T09:42:46.410Z,66.50
2022-12-26T09:43:17.429Z,68.20
2022-12-26T09:43:50.229Z,68.30
2022-12-26T09:44:21.458Z,64.80
2022-12-26T09:44:52.236Z,66.20
2022-12-26T09:45:23.001Z,66.00
2022-12-26T09:45:53.804Z,66.20
2022-12-26T09:46:24.612Z,66.60
2022-12-26T09:46:55.385Z,65.70
2022-12-26T09:47:27.144Z,63.00
2022-12-26T09:47:57.893Z,65.40
2022-12-26T09:48:28.643Z,62.60
2022-12-26T09:48:59.604Z,73.40
2022-12-26T09:49:30.388Z,65.90
2022-12-26T09:50:01.154Z,62.90
2022-12-26T09:50:31.949Z,74.70
2022-12-26T09:51:02.723Z,88.70
2022-12-26T09:51:33.516Z,79.00
2022-12-26T09:52:04.288Z,68.80
2022-12-26T09:52:35.045Z,70.90
2022-12-26T09:53:05.811Z,65.30
2022-12-26T09:53:36.555Z,71.80
2022-12-26T09:54:07.324Z,66.30
2022-12-26T09:54:38.111Z,63.10
2022-12-26T09:55:08.896Z,66.00
2022-12-26T09:55:39.681Z,69.50
2022-12-26T09:56:13.944Z,77.20
2022-12-26T09:57:15.664Z,67.40
2022-12-26T09:57:46.416Z,69.90
2022-12-26T09:58:17.185Z,65.50
2022-12-26T09:58:47.957Z,61.90
2022-12-26T09:59:18.721Z,59.50
2022-12-26T09:59:49.498Z,63.80
2022-12-26T10:00:20.255Z,64.70
2022-12-26T10:00:51.049Z,57.30
2022-12-26T10:01:21.925Z,57.60
2022-12-26T10:01:52.798Z,59.30
2022-12-26T10:02:23.734Z,61.10
2022-12-26T10:02:54.608Z,61.80
2022-12-26T10:03:25.387Z,67.00
2022-12-26T10:03:56.159Z,61.10
2022-12-26T10:04:29.920Z,70.20
2022-12-26T10:04:58.189Z,59.50
2022-12-26T10:05:28.986Z,59.90
2022-12-26T10:05:59.760Z,67.00
2022-12-26T10:06:30.519Z,71.20
2022-12-26T10:07:01.285Z,82.40
2022-12-26T10:07:32.047Z,67.50
2022-12-26T10:08:02.823Z,63.80
2022-12-26T10:08:33.568Z,62.10
2022-12-26T10:09:04.320Z,62.00
2022-12-26T10:09:35.240Z,55.10
2022-12-26T10:10:06.024Z,53.80
2022-12-26T10:10:36.801Z,62.70
2022-12-26T10:11:07.567Z,62.30
2022-12-26T10:11:38.330Z,68.30
2022-12-26T10:12:09.095Z,61.50
2022-12-26T10:12:39.868Z,58.60
2022-12-26T10:13:10.628Z,54.40
2022-12-26T10:13:41.388Z,54.70
2022-12-26T10:14:15.141Z,59.50
2022-12-26T10:14:44.747Z,52.40
2022-12-26T10:15:15.532Z,54.30
2022-12-26T10:15:46.329Z,49.60
2022-12-26T10:16:17.141Z,56.70
2022-12-26T10:16:47.908Z,58.20
2022-12-26T10:17:18.666Z,46.80
2022-12-26T10:17:49.427Z,55.90
2022-12-26T10:18:20.183Z,53.80
2022-12-26T10:18:50.963Z,51.40
2022-12-26T10:19:21.724Z,46.60
2022-12-26T10:19:52.485Z,48.40
2022-12-26T10:20:23.239Z,46.60
2022-12-26T10:20:54.011Z,58.60
2022-12-26T10:21:24.776Z,54.00
2022-12-26T10:21:55.533Z,59.80
2022-12-26T10:22:26.303Z,52.60
2022-12-26T10:22:57.081Z,53.10
2022-12-26T10:23:27.821Z,58.70
2022-12-26T10:23:58.591Z,50.30
2022-12-26T10:24:29.379Z,48.70
2022-12-26T10:25:00.140Z,50.20
2022-12-26T10:25:33.942Z,45.40
2022-12-26T10:26:01.932Z,44.70
2022-12-26T10:26:32.702Z,46.00
2022-12-26T10:27:03.485Z,50.20
2022-12-26T10:27:34.251Z,41.70
2022-12-26T10:28:05.021Z,44.20
2022-12-26T10:28:35.782Z,41.50
2022-12-26T10:29:06.557Z,37.40
2022-12-26T10:29:37.320Z,36.70
2022-12-26T10:30:08.082Z,38.10
2022-12-26T10:30:39.069Z,35.80
2022-12-26T10:31:09.956Z,36.70
2022-12-26T10:31:40.738Z,36.20
2022-12-26T10:32:11.513Z,36.60
2022-12-26T10:32:42.522Z,37.80
2022-12-26T10:33:13.281Z,41.40
2022-12-26T10:33:44.066Z,38.40
2022-12-26T10:34:14.814Z,40.30
2022-12-26T10:34:45.599Z,35.30
2022-12-26T10:35:16.349Z,34.60
2022-12-26T10:35:47.123Z,36.40
2022-12-26T10:36:17.885Z,36.10
2022-12-26T10:36:48.677Z,37.20
2022-12-26T10:37:19.463Z,37.30
2022-12-26T10:37:50.214Z,42.50
2022-12-26T10:38:25.720Z,36.90
2022-12-26T10:38:53.583Z,39.70
2022-12-26T10:39:24.340Z,37.40
2022-12-26T10:39:55.106Z,37.40
2022-12-26T10:40:25.881Z,40.50
2022-12-26T10:40:56.644Z,36.60
2022-12-26T10:41:27.422Z,35.80
2022-12-26T10:41:58.204Z,32.60
2022-12-26T10:42:28.957Z,34.20
2022-12-26T10:42:59.719Z,36.30
2022-12-26T10:43:31.758Z,34.40
2022-12-26T10:44:02.535Z,39.20
2022-12-26T10:44:33.293Z,35.40
2022-12-26T10:45:04.055Z,38.10
2022-12-26T10:45:34.835Z,38.10
2022-12-26T10:46:05.598Z,34.70
2022-12-26T10:46:36.469Z,35.60
2022-12-26T10:47:07.279Z,31.80
2022-12-26T10:47:38.040Z,39.20
2022-12-26T10:48:08.802Z,35.70
2022-12-26T10:48:39.574Z,35.80
2022-12-26T10:49:10.336Z,33.80
2022-12-26T10:49:41.659Z,37.80
2022-12-26T10:50:12.428Z,36.00
2022-12-26T10:50:43.237Z,38.50
2022-12-26T10:51:14.000Z,37.40
2022-12-26T10:51:44.756Z,38.50
2022-12-26T10:52:15.530Z,33.30
2022-12-26T10:52:46.290Z,35.30
2022-12-26T10:53:17.068Z,34.90
2022-12-26T10:53:47.846Z,32.50
2022-12-26T10:54:18.637Z,37.90
2022-12-26T10:54:49.409Z,39.00
2022-12-26T10:55:28.177Z,33.20
2022-12-26T10:55:52.813Z,32.90
2022-12-26T10:56:23.579Z,38.60
2022-12-26T10:56:54.336Z,36.90
2022-12-26T10:57:25.097Z,33.10
2022-12-26T10:57:55.859Z,34.60
2022-12-26T10:58:27.068Z,33.50
2022-12-26T10:58:57.849Z,34.70
2022-12-26T10:59:28.668Z,31.40
2022-12-26T10:59:59.500Z,32.70
2022-12-26T11:00:30.279Z,34.10
2022-12-26T11:01:01.060Z,36.40
2022-12-26T11:01:31.946Z,32.90
2022-12-26T11:02:06.946Z,31.30
2022-12-26T11:02:35.168Z,31.30
2022-12-26T11:03:06.267Z,32.20
2022-12-26T11:03:37.138Z,31.80
2022-12-26T11:04:07.926Z,33.60
2022-12-26T11:05:11.233Z,33.70
2022-12-26T11:05:21.875Z,34.20
2022-12-26T11:06:16.554Z,31.40
2022-12-26T11:06:47.336Z,31.40
2022-12-26T11:07:18.109Z,32.40
2022-12-26T11:07:48.893Z,33.10
2022-12-26T11:08:19.682Z,34.40
2022-12-26T11:08:50.454Z,30.10
2022-12-26T11:09:21.229Z,30.60
2022-12-26T11:09:52.009Z,26.40
2022-12-26T11:10:22.751Z,30.30
2022-12-26T11:10:53.529Z,29.00
2022-12-26T11:11:24.289Z,29.90
2022-12-26T11:11:55.069Z,28.40
2022-12-26T11:12:25.831Z,27.60
2022-12-26T11:12:56.605Z,27.00
2022-12-26T11:13:27.351Z,26.50
2022-12-26T11:14:02.229Z,26.20
2022-12-26T11:14:33.782Z,24.40
2022-12-26T11:15:02.127Z,27.90
2022-12-26T11:15:32.922Z,27.90
2022-12-26T11:16:03.756Z,27.10
2022-12-26T11:16:34.622Z,28.70
2022-12-26T11:17:05.423Z,27.20
2022-12-26T11:17:36.193Z,27.50
2022-12-26T11:18:09.882Z,30.30
2022-12-26T11:18:37.584Z,30.40
2022-12-26T11:19:08.354Z,28.90
2022-12-26T11:19:39.104Z,28.60
2022-12-26T11:20:09.867Z,25.70
2022-12-26T11:20:40.632Z,33.00
2022-12-26T11:21:12.979Z,28.20
2022-12-26T11:21:43.861Z,26.40
2022-12-26T11:22:14.627Z,28.00
2022-12-26T11:22:45.383Z,29.50
2022-12-26T11:23:16.140Z,30.20
2022-12-26T11:23:46.906Z,28.10
2022-12-26T11:24:17.675Z,32.40
2022-12-26T11:24:48.439Z,29.20
2022-12-26T11:25:19.219Z,29.60
2022-12-26T11:25:49.982Z,25.40
2022-12-26T11:26:20.751Z,29.30
2022-12-26T11:26:51.506Z,27.10
2022-12-26T11:27:22.274Z,26.30
2022-12-26T11:27:53.033Z,27.10
2022-12-26T11:28:23.832Z,28.40
2022-12-26T11:28:54.591Z,28.10
2022-12-26T11:29:25.359Z,25.50
2022-12-26T11:29:56.104Z,29.10
2022-12-26T11:30:27.202Z,28.70
2022-12-26T11:30:58.017Z,28.60
2022-12-26T11:31:28.807Z,26.70
2022-12-26T11:31:59.555Z,26.30
2022-12-26T11:32:30.339Z,27.80
2022-12-26T11:33:01.130Z,32.20
2022-12-26T11:33:31.888Z,24.70
2022-12-26T11:34:02.648Z,26.10
2022-12-26T11:34:33.398Z,28.40
2022-12-26T11:35:04.156Z,25.40
2022-12-26T11:35:34.928Z,30.60
2022-12-26T11:36:05.716Z,28.10
2022-12-26T11:36:36.511Z,27.80
2022-12-26T11:37:07.303Z,26.20
2022-12-26T11:37:38.090Z,25.40
2022-12-26T11:38:08.848Z,26.70
2022-12-26T11:38:44.960Z,27.40
2022-12-26T11:39:12.216Z,28.40
2022-12-26T11:39:43.005Z,29.00
2022-12-26T11:40:13.756Z,23.90
2022-12-26T11:40:44.526Z,25.20
2022-12-26T11:41:15.319Z,26.10
2022-12-26T11:41:46.096Z,23.50
2022-12-26T11:42:16.860Z,24.40
2022-12-26T11:42:47.608Z,23.70
2022-12-26T11:43:18.377Z,30.30
2022-12-26T11:43:49.134Z,23.80
2022-12-26T11:44:19.896Z,26.20
2022-12-26T11:44:50.658Z,23.70
2022-12-26T11:45:21.440Z,27.20
2022-12-26T11:45:52.208Z,25.60
2022-12-26T11:46:23.975Z,27.90
2022-12-26T11:46:54.800Z,28.40
2022-12-26T11:47:25.603Z,27.40
2022-12-26T11:47:56.358Z,25.10
2022-12-26T11:48:27.218Z,26.00
2022-12-26T11:48:57.981Z,26.50
2022-12-26T11:49:28.752Z,24.40
2022-12-26T11:49:59.509Z,25.20
2022-12-26T11:50:30.277Z,27.60
2022-12-26T11:51:01.063Z,26.30
2022-12-26T11:51:31.818Z,23.80
2022-12-26T11:52:02.603Z,24.40
2022-12-26T11:52:33.438Z,24.00
2022-12-26T11:53:04.212Z,26.40
2022-12-26T11:53:34.986Z,27.50
2022-12-26T11:54:05.746Z,24.70
2022-12-26T11:54:36.508Z,28.10
2022-12-26T11:55:07.262Z,24.20
2022-12-26T11:55:38.083Z,27.70
2022-12-26T11:56:08.867Z,29.30
2022-12-26T11:56:39.627Z,30.40
2022-12-26T11:57:10.391Z,28.40
2022-12-26T11:57:41.162Z,26.70
2022-12-26T11:58:12.263Z,26.20
2022-12-26T11:58:43.019Z,30.40
2022-12-26T11:59:13.772Z,32.40
2022-12-26T11:59:44.560Z,31.90
2022-12-26T12:00:15.354Z,30.20
2022-12-26T12:00:46.141Z,27.60
2022-12-26T12:01:16.958Z,29.60
2022-12-26T12:01:47.794Z,29.60
2022-12-26T12:02:18.629Z,25.80
2022-12-26T12:02:49.540Z,26.20
2022-12-26T12:03:20.425Z,29.90
2022-12-26T12:03:51.268Z,28.80
2022-12-26T12:04:22.061Z,31.20
2022-12-26T12:04:52.837Z,28.10
2022-12-26T12:05:23.606Z,28.20
2022-12-26T12:05:54.377Z,30.20
2022-12-26T12:06:25.143Z,26.80
2022-12-26T12:06:55.913Z,32.80
2022-12-26T12:07:26.669Z,32.50
2022-12-26T12:07:57.431Z,31.60
2022-12-26T12:08:28.182Z,35.70
2022-12-26T12:09:05.420Z,30.50
2022-12-26T12:09:31.563Z,30.10
2022-12-26T12:10:02.332Z,33.00
2022-12-26T12:10:40.198Z,32.30
2022-12-26T12:11:08.691Z,31.40
2022-12-26T12:11:42.417Z,33.40
2022-12-26T12:12:08.839Z,29.10
2022-12-26T12:12:41.338Z,29.40
2022-12-26T12:13:15.173Z,28.60
2022-12-26T12:13:43.558Z,30.60
2022-12-26T12:14:14.852Z,28.90
2022-12-26T12:14:52.486Z,30.20
2022-12-26T12:15:16.814Z,28.60
2022-12-26T12:15:48.424Z,31.60
2022-12-26T12:16:19.456Z,31.30
2022-12-26T12:16:50.887Z,31.80
2022-12-26T12:17:21.880Z,25.40
2022-12-26T12:17:53.135Z,28.60
2022-12-26T12:18:24.161Z,28.40
2022-12-26T12:18:55.235Z,29.70
2022-12-26T12:19:27.194Z,30.40
2022-12-26T12:19:58.762Z,30.10
2022-12-26T12:20:29.872Z,34.30
2022-12-26T12:21:01.210Z,28.80
2022-12-26T12:21:33.603Z,33.00
2022-12-26T12:22:04.722Z,33.20
2022-12-26T12:22:36.569Z,30.30
2022-12-26T12:23:07.950Z,30.60
2022-12-26T12:23:39.593Z,30.20
2022-12-26T12:24:10.354Z,29.40
2022-12-26T12:24:41.118Z,27.00
2022-12-26T12:25:12.334Z,30.90
2022-12-26T12:25:43.096Z,33.90
2022-12-26T12:26:13.851Z,35.00
2022-12-26T12:26:47.368Z,39.00
2022-12-26T12:27:17.231Z,29.20
2022-12-26T12:27:47.995Z,25.70
2022-12-26T12:28:18.775Z,34.10
2022-12-26T12:28:49.540Z,55.00
2022-12-26T12:29:20.308Z,42.40
2022-12-26T12:29:51.068Z,26.70
2022-12-26T12:30:21.826Z,26.50
2022-12-26T12:30:52.586Z,27.90
2022-12-26T12:31:23.423Z,30.90
2022-12-26T12:31:54.249Z,26.80
2022-12-26T12:32:25.030Z,26.70
2022-12-26T12:32:57.312Z,32.70
2022-12-26T12:33:28.279Z,59.50
2022-12-26T12:33:59.039Z,79.70
2022-12-26T12:34:30.007Z,25.10
2022-12-26T12:35:04.388Z,39.70
2022-12-26T12:35:32.804Z,29.00
2022-12-26T12:36:06.172Z,26.20
2022-12-26T12:36:36.902Z,24.90
2022-12-26T12:37:06.455Z,27.80
2022-12-26T12:37:40.533Z,27.00
2022-12-26T12:38:09.556Z,31.60
2022-12-26T12:38:40.892Z,27.60
2022-12-26T12:39:13.531Z,24.50
2022-12-26T12:39:44.328Z,25.90
2022-12-26T12:40:15.090Z,21.30
2022-12-26T12:40:45.867Z,25.30
2022-12-26T12:41:16.628Z,28.00
2022-12-26T12:41:47.411Z,22.70
2022-12-26T12:42:18.156Z,25.90
2022-12-26T12:42:48.917Z,29.80
2022-12-26T12:43:19.699Z,21.20
2022-12-26T12:43:50.460Z,18.60
2022-12-26T12:44:21.222Z,19.90
2022-12-26T12:44:56.669Z,20.00
2022-12-26T12:45:24.660Z,23.30
2022-12-26T12:45:55.500Z,26.20
2022-12-26T12:46:26.304Z,24.80
2022-12-26T12:46:57.070Z,21.70
2022-12-26T12:47:27.842Z,21.00
2022-12-26T12:47:58.619Z,20.50
2022-12-26T12:48:30.585Z,21.00
2022-12-26T12:49:02.836Z,18.20
2022-12-26T12:49:34.585Z,19.60
2022-12-26T12:50:05.983Z,17.20
2022-12-26T12:50:38.605Z,16.50
2022-12-26T12:51:09.785Z,17.70
2022-12-26T12:51:41.497Z,15.80
2022-12-26T12:52:13.148Z,15.40
2022-12-26T12:52:44.425Z,15.30
2022-12-26T12:53:15.494Z,16.40
2022-12-26T12:53:46.278Z,14.20
2022-12-26T12:54:17.044Z,13.70
2022-12-26T12:54:48.431Z,13.60
2022-12-26T12:55:20.499Z,16.10
2022-12-26T12:55:52.974Z,14.40
2022-12-26T12:56:26.891Z,12.30
2022-12-26T12:56:56.823Z,12.70
2022-12-26T12:57:28.699Z,15.30
2022-12-26T12:57:59.846Z,11.30
2022-12-26T12:58:32.153Z,13.60
2022-12-26T12:59:03.316Z,18.30
2022-12-26T12:59:34.101Z,13.90
2022-12-26T13:00:04.872Z,12.60
2022-12-26T13:00:35.649Z,12.00
2022-12-26T13:01:06.509Z,12.00
2022-12-26T13:01:37.436Z,12.90
2022-12-26T13:02:11.091Z,12.20
2022-12-26T13:02:40.632Z,14.00
2022-12-26T13:03:11.519Z,11.90
2022-12-26T13:03:42.279Z,10.70
2022-12-26T13:04:13.053Z,12.80
2022-12-26T13:04:43.822Z,10.20
2022-12-26T13:05:14.584Z,10.80
2022-12-26T13:05:45.344Z,8.60
2022-12-26T13:06:16.113Z,9.20
2022-12-26T13:06:46.884Z,11.70
2022-12-26T13:07:17.649Z,9.10
2022-12-26T13:07:48.440Z,8.30
2022-12-26T13:08:19.184Z,12.50
2022-12-26T13:08:49.944Z,10.10
2022-12-26T13:09:20.701Z,8.00